Flight Track Log - Related Links

Times and Time Zones

All times are in EDT time to prevent confusion due to time zone crossing. See the SWA2353 flight status page for this flight to view local times or setup timezone preferences in your user account.

Time Position Orientation Groundspeed Altitude Reporting Facility
EDT Latitude Longitude Course Direction KTS MPH feet Rate Location/Type
Thu 07:00:51 PM 39.8667 -75.2833 247° West 138 159 900  Level Philadelphia TRACON
Thu 07:01:39 PM 39.8500 -75.3333 247° West 187 215 2,300 2,365 Climbing Philadelphia TRACON
Thu 07:03:41 PM 39.8336 -75.4881 262° West 238 274 7,600 2,721 Climbing New York Center
Thu 07:04:42 PM 39.8403 -75.5833 275° West 254 292 10,600 1,983 Climbing New York Center
Thu 07:05:42 PM 39.8508 -75.6786 278° West 294 338 11,600 2,050 Climbing New York Center
Thu 07:06:42 PM 39.8644 -75.8039 278° West 319 367 14,700 2,975 Climbing New York Center
Thu 07:07:41 PM 39.8767 -75.9050 279° West 319 367 17,500 2,773 Climbing New York Center
Thu 07:08:41 PM 39.8958 -76.0389 281° West 329 379 20,200 2,777 Climbing New York Center
Thu 07:09:42 PM 39.9067 -76.1669 276° West 349 402 23,100 2,410 Climbing New York Center
Thu 07:10:43 PM 39.9097 -76.2836 272° West 360 414 25,100 2,118 Climbing New York Center
Thu 07:11:41 PM 39.9156 -76.4222 273° West 375 432 27,300 2,339 Climbing New York Center
Thu 07:12:41 PM 39.9217 -76.5528 274° West 375 432 29,700 1,525 Climbing New York Center
Thu 07:13:43 PM 39.9292 -76.6994 274° West 388 447 30,400 1,150 Climbing New York Center
Thu 07:14:41 PM 39.9342 -76.8461 273° West 401 461 32,000 1,765 Climbing New York Center
Thu 07:15:42 PM 39.9389 -76.9928 272° West 408 470 33,900 1,770 Climbing New York Center
Thu 07:16:43 PM 39.9436 -77.1394 272° West 408 470 35,600 1,068 Climbing New York Center
Thu 07:17:40 PM 39.9503 -77.2864 273° West 408 470 36,000 116 Climbing New York Center
Thu 07:20:10 PM 39.9731 -77.6544 275° West 413 475 36,000  Level Cleveland Center
Thu 07:21:10 PM 39.9975 -77.7917 283° West 395 455 36,000  Level Cleveland Center
Thu 07:22:10 PM 40.0194 -77.9289 282° West 390 449 36,000  Level Cleveland Center
Thu 07:23:10 PM 40.0394 -78.0692 281° West 395 455 36,000  Level Cleveland Center
Thu 07:24:10 PM 40.0611 -78.2069 282° West 395 455 36,000  Level Cleveland Center
Thu 07:25:10 PM 40.0847 -78.3417 283° West 390 449 36,000  Level Cleveland Center
Thu 07:26:10 PM 40.1061 -78.4794 282° West 390 449 36,000  Level Cleveland Center
Thu 07:27:10 PM 40.1272 -78.6144 282° West 390 449 36,000  Level Cleveland Center
Thu 07:28:10 PM 40.1503 -78.7497 283° West 390 449 36,000  Level Cleveland Center
Thu 07:29:10 PM 40.1714 -78.8850 282° West 390 449 36,000  Level Cleveland Center
Thu 07:30:10 PM 40.1919 -79.0203 281° West 390 449 36,000  Level Cleveland Center
Thu 07:31:10 PM 40.2125 -79.1475 282° West 395 455 36,000  Level Cleveland Center
Thu 07:32:10 PM 40.2328 -79.2858 281° West 395 455 36,000  Level Cleveland Center
Thu 07:33:10 PM 40.2594 -79.4350 283° West 395 455 36,000  Level Cleveland Center
Thu 07:34:10 PM 40.2794 -79.5761 281° West 390 449 36,000 650 Level Cleveland Center
Thu 07:35:10 PM 40.3014 -79.7147 282° West 390 449 37,300 1,000 Climbing Cleveland Center
Thu 07:36:10 PM 40.3211 -79.8478 281° West 385 443 38,000 350 Climbing Cleveland Center
Thu 07:37:10 PM 40.3386 -79.9783 280° West 380 437 38,000  Level Cleveland Center
Thu 07:38:10 PM 40.3558 -80.1064 280° West 380 437 38,000  Level Cleveland Center
Thu 07:39:10 PM 40.3753 -80.2453 280° West 385 443 38,000  Level Cleveland Center
Thu 07:40:10 PM 40.3983 -80.3731 283° West 390 449 38,000  Level Cleveland Center
Thu 07:41:10 PM 40.4172 -80.5067 281° West 385 443 38,000  Level Cleveland Center
Thu 07:42:10 PM 40.4361 -80.6403 281° West 380 437 38,000  Level Cleveland Center
Thu 07:43:10 PM 40.4547 -80.7686 281° West 375 432 38,000  Level Cleveland Center
Thu 07:44:10 PM 40.4733 -80.8997 281° West 370 426 38,000  Level Cleveland Center
Thu 07:45:10 PM 40.4914 -81.0336 280° West 370 426 38,000  Level Cleveland Center
Thu 07:46:10 PM 40.5097 -81.1675 280° West 370 426 38,000  Level Cleveland Center
Thu 07:47:10 PM 40.5256 -81.2989 279° West 370 426 38,000  Level Cleveland Center
Thu 07:48:10 PM 40.5433 -81.4356 280° West 370 426 38,000  Level Cleveland Center
Thu 07:49:10 PM 40.5589 -81.5725 279° West 370 426 38,000  Level Cleveland Center
Thu 07:50:10 PM 40.5889 -81.7206 285° West 375 432 38,000  Level Cleveland Center
Thu 07:51:10 PM 40.6208 -81.8550 287° West 381 438 38,000  Level Cleveland Center
Thu 07:52:10 PM 40.6525 -81.9869 288° West 381 438 38,000  Level Cleveland Center
Thu 07:53:10 PM 40.6842 -82.1219 287° West 387 445 38,000  Level Cleveland Center
Thu 07:54:10 PM 40.7178 -82.2569 288° West 387 445 38,000  Level Cleveland Center
Thu 07:55:10 PM 40.7469 -82.3919 286° West 387 445 38,000  Level Cleveland Center
Thu 07:56:10 PM 40.7781 -82.5272 287° West 387 445 38,000  Level Cleveland Center
Thu 07:57:10 PM 40.8111 -82.6681 287° West 387 445 38,000  Level Cleveland Center
Thu 07:58:10 PM 40.8381 -82.7897 286° West 387 445 38,000  Level Cleveland Center
Thu 07:59:10 PM 40.8706 -82.9281 287° West 387 445 38,000  Level Cleveland Center
Thu 08:00:10 PM 40.9031 -83.0667 287° West 387 445 38,000  Level Cleveland Center
Thu 08:01:10 PM 40.9356 -83.2025 288° West 387 445 38,000  Level Cleveland Center
Thu 08:02:10 PM 40.9656 -83.3386 286° West 387 445 38,000  Level Cleveland Center
Thu 08:03:10 PM 40.9975 -83.4803 287° West 387 445 38,000  Level Cleveland Center
Thu 08:04:10 PM 41.0272 -83.6192 286° West 392 451 38,000  Level Cleveland Center
Thu 08:05:10 PM 41.0567 -83.7636 285° West 397 457 38,000  Level Cleveland Center
Thu 08:06:10 PM 41.0900 -83.9142 286° West 403 464 38,000 -183 Level Cleveland Center
Thu 08:08:27 PM 41.1567 -84.2258 286° West 398 458 37,400 -905 Descending Chicago Center
Thu 08:09:29 PM 41.1858 -84.3617 286° West 387 445 35,000 -2,516 Descending Chicago Center
Thu 08:10:31 PM 41.2150 -84.4975 286° West 383 441 32,200 -2,419 Descending Chicago Center
Thu 08:11:33 PM 41.2450 -84.6397 286° West 396 456 30,000 -1,113 Descending Chicago Center
Thu 08:12:35 PM 41.2789 -84.8067 285° West 392 451 29,900 -581 Descending Chicago Center
Thu 08:13:37 PM 41.3075 -84.9456 285° West 390 449 28,800 -919 Descending Chicago Center
Thu 08:14:39 PM 41.3364 -85.0847 285° West 388 447 28,000 -484 Descending Chicago Center
Thu 08:15:41 PM 41.3644 -85.2225 285° West 386 444 27,800 -581 Descending Chicago Center
Thu 08:16:43 PM 41.3925 -85.3614 285° West 385 443 26,800 -871 Descending Chicago Center
Thu 08:17:45 PM 41.4211 -85.5028 285° West 389 448 26,000 -1,296 Descending Chicago Center
Thu 08:18:48 PM 41.4500 -85.6497 285° West 403 464 24,100 -2,352 Descending Chicago Center
Thu 08:19:50 PM 41.4744 -85.8203 281° West 392 451 21,100 -2,565 Descending Chicago Center
Thu 08:20:52 PM 41.4864 -85.9581 277° West 379 436 18,800 -2,323 Descending Chicago Center
Thu 08:21:54 PM 41.4975 -86.0936 276° West 370 426 16,300 -2,371 Descending Chicago Center
Thu 08:22:56 PM 41.5083 -86.2297 276° West 371 427 13,900 -2,323 Descending Chicago Center
Thu 08:23:58 PM 41.5206 -86.3661 277° West 371 427 11,500 -1,645 Descending Chicago Center
Thu 08:25:00 PM 41.5231 -86.4989 271° West 364 419 10,500 -677 Descending Chicago Center
Thu 08:26:02 PM 41.5208 -86.6503 269° West 343 395 10,100 -242 Descending Chicago Center
Thu 08:27:04 PM 41.5197 -86.7769 269° West 343 395 10,000 -97 Descending Chicago Center
Thu 08:28:06 PM 41.5186 -86.8953 269° West 328 377 9,900 -823 Descending Chicago Center
Thu 08:29:08 PM 41.5169 -87.0000 269° West 290 334 8,300 -1,548 Descending Chicago Center
Thu 08:30:10 PM 41.5161 -87.1025 269° West 279 321 6,700 -1,683 Descending Chicago Center
Thu 08:30:30 PM 41.5167 -87.1500 271° West 274 315 6,000 -525 Descending Chicago TRACON
Thu 08:31:30 PM 41.5333 -87.2500 283° West 268 308 6,000 -250 Level Chicago TRACON
Thu 08:32:30 PM 41.5667 -87.3333 298° West 269 310 5,500 -673 Descending Chicago TRACON
Thu 08:33:17 PM 41.5822 -87.4033 287° West 269 310 4,800 -826 Descending Chicago Center
Thu 08:34:19 PM 41.6044 -87.4978 287° West 269 310 4,000 -435 Descending Chicago Center
Thu 08:35:21 PM 41.6039 -87.5914 270° West 261 300 3,900  Descending Chicago Center
Thu 08:36:23 PM 41.6081 -87.6772 274° West 218 251 4,000 48 Climbing Chicago Center
Thu 08:37:25 PM 41.6117 -87.7408 274° West 190 219 4,000  Level Chicago Center
Thu 08:38:27 PM 41.6050 -87.8036 262° West 179 206 4,000  Level Chicago Center
Thu 08:39:29 PM 41.5853 -87.8606 245° Southwest 176 203 4,000 -194 Level Chicago Center
Thu 08:40:31 PM 41.5950 -87.9183 283° West 192 221 3,600 -726 Descending Chicago Center
Thu 08:41:33 PM 41.6564 -87.9133 North 202 232 2,500 -532 Descending Chicago Center
Thu 08:42:35 PM 41.6975 -87.8653 41° Northeast 199 229 2,500 -288 Level Chicago Center
Thu 08:43:38 PM 41.7319 -87.8203 44° Northeast 188 216 1,900 -672 Descending Chicago Center
Thu 08:44:31 PM 41.7500 -87.7833 57° Northeast 137 158 1,200 -792 Descending Chicago TRACON

Login

Don't have an account? Register now (free) for customized features, flight alerts, and more!